Bookmark and Share
Track history (hours):
 

Svartfoss

Last reported at 2014-Apr-16 13:26 UTC. Time now 2014-Apr-17 06:47 UTC.
Position N 67°50' E 014°26'.

Length 80 m; draft 5.6 m.

Type: Ship (hazmat cat A). MMSI: 304882000.

NotesDate/timePositionNaut miles runAvg speedWind from/ knotsBaromVisibWave heightAir tempDewpointWater temp
2014-Apr-16 13:26N 67°50' E 014°26'1213.7
2014-Apr-16 12:33N 67°38' E 014°18'1515.0
2014-Apr-16 11:33N 67°24' E 014°26'1615.7
2014-Apr-16 10:33N 67°11' E 014°05'38 7.6
2014-Apr-16 05:33N 66°42' E 012°59'1515.0
2014-Apr-16 04:33N 66°36' E 012°25'10 9.5
2014-Apr-16 03:33N 66°30' E 012°06'1 0.5
2014-Apr-16 02:33N 66°30' E 012°06'0 0.1
2014-Apr-16 01:33N 66°30' E 012°07'1311.5
2014-Apr-16 00:27N 66°18' E 012°12'1213.8
2014-Apr-15 23:33N 66°11' E 012°39'276 8.9
2014-Apr-14 16:33N 62°32' E 006°10'6 6.3
2014-Apr-14 15:33N 62°28' E 006°21'0 0.0
2014-Apr-14 14:34N 62°28' E 006°21'4 4.1
2014-Apr-14 13:33N 62°29' E 006°12'0 0.1
2014-Apr-14 11:31N 62°29' E 006°12'2 0.6
2014-Apr-14 08:33N 62°27' E 006°10'186 8.4
2014-Apr-13 10:30N 59°23' E 005°17'6 6.8
2014-Apr-13 09:33N 59°17' E 005°19'10 9.6
2014-Apr-13 08:34N 59°08' E 005°25'1212.1
2014-Apr-13 07:33N 59°02' E 005°46'1110.7
2014-Apr-13 06:33N 58°51' E 005°45'0 0.0
2014-Apr-13 05:33N 58°51' E 005°45'0 0.0
2014-Apr-13 04:34N 58°51' E 005°45'1010.1
2014-Apr-13 03:33N 59°01' E 005°48'9 9.1
2014-Apr-13 02:33N 58°56' E 005°33'1413.5
2014-Apr-13 01:33N 58°43' E 005°25'2813.6
2014-Apr-12 23:30N 58°15' E 005°23'1313.9
2014-Apr-12 22:33N 58°02' E 005°22'19914.2
2014-Apr-12 08:33N 54°43' E 005°08'1514.7
2014-Apr-12 07:31N 54°29' E 005°03'1414.8
2014-Apr-12 06:33N 54°15' E 004°58'3514.8
2014-Apr-12 04:12N 53°40' E 004°50'1515.6
2014-Apr-12 03:15N 53°26' E 004°43'1816.4
2014-Apr-12 02:10N 53°09' E 004°31'1016.3
2014-Apr-12 01:32N 53°00' E 004°23'1616.0
2014-Apr-12 00:33N 52°46' E 004°11'1414.3
2014-Apr-11 23:33N 52°32' E 004°11'1413.5
2014-Apr-11 22:33N 52°28' E 004°32'5 4.8
2014-Apr-11 21:33N 52°28' E 004°40'0 0.0
2014-Apr-11 20:32N 52°28' E 004°40'0 0.0
2014-Apr-11 19:32N 52°28' E 004°40'0 0.0
2014-Apr-11 18:32N 52°28' E 004°40'0 0.0
2014-Apr-11 17:32N 52°28' E 004°40'0 0.0
2014-Apr-11 16:32N 52°28' E 004°40'0 0.0
2014-Apr-11 15:32N 52°28' E 004°40'0 0.0
2014-Apr-11 14:32N 52°28' E 004°40'0 0.0
2014-Apr-11 13:32N 52°28' E 004°40'0 0.0
2014-Apr-11 12:32N 52°28' E 004°40'0 0.0
2014-Apr-11 11:32N 52°28' E 004°40'0 0.0
2014-Apr-11 10:32N 52°28' E 004°40'0 0.0
2014-Apr-11 09:32N 52°28' E 004°40'0 0.0
2014-Apr-11 08:26N 52°28' E 004°40'0 0.0
2014-Apr-11 07:29N 52°28' E 004°40'0 0.0
2014-Apr-11 06:32N 52°28' E 004°40'0 0.0
2014-Apr-11 05:32N 52°28' E 004°40'0 0.0
2014-Apr-11 04:32N 52°28' E 004°40'0 0.0
2014-Apr-11 03:32N 52°28' E 004°40'0 0.0
2014-Apr-11 02:29N 52°28' E 004°40'0 0.0
2014-Apr-11 01:26N 52°28' E 004°40'0 0.0
2014-Apr-11 00:32N 52°28' E 004°40'0 0.0
2014-Apr-10 23:32N 52°28' E 004°40'0 0.0
2014-Apr-10 22:29N 52°28' E 004°40'0 0.0
2014-Apr-10 21:32N 52°28' E 004°40'0 0.0
2014-Apr-10 20:29N 52°28' E 004°40'0 0.0
2014-Apr-10 19:29N 52°28' E 004°40'0 0.0
2014-Apr-10 18:29N 52°28' E 004°40'0 0.0
2014-Apr-10 17:31N 52°28' E 004°40'0 0.0
2014-Apr-10 16:31N 52°28' E 004°40'0 0.0
2014-Apr-10 15:28N 52°28' E 004°40'0 0.0
2014-Apr-10 14:31N 52°28' E 004°40'2 2.6
2014-Apr-10 13:34N 52°28' E 004°36'1110.9
2014-Apr-10 12:34N 52°29' E 004°18'1313.0
2014-Apr-10 11:33N 52°27' E 003°57'4714.3
2014-Apr-10 08:17N 52°46' E 002°46'1314.9
2014-Apr-10 07:24N 52°53' E 002°28'1315.4
2014-Apr-10 06:33N 52°59' E 002°09'1615.9
2014-Apr-10 05:33N 53°08' E 001°46'1616.0
2014-Apr-10 04:33N 53°14' E 001°22'3216.0
2014-Apr-10 02:33N 53°27' E 000°32'1414.2
2014-Apr-10 01:33N 53°33' E 000°11'9 9.3
2014-Apr-10 00:34N 53°35' W 000°04'0 0.1
2014-Apr-09 23:33N 53°35' W 000°04'0 0.0
2014-Apr-09 22:33N 53°35' W 000°04'0 0.0
2014-Apr-09 21:34N 53°35' W 000°04'0 0.0
2014-Apr-09 20:33N 53°35' W 000°04'0 0.0
2014-Apr-09 19:33N 53°35' W 000°04'0 0.0
2014-Apr-09 18:33N 53°35' W 000°04'0 0.0
2014-Apr-09 17:34N 53°35' W 000°04'0 0.0
2014-Apr-09 16:33N 53°35' W 000°04'0 0.0
2014-Apr-09 15:33N 53°35' W 000°04'0 0.0
2014-Apr-09 14:33N 53°35' W 000°04'0 0.0
2014-Apr-09 13:33N 53°35' W 000°04'0 0.0
2014-Apr-09 12:33N 53°35' W 000°04'5 5.0
2014-Apr-09 11:34N 53°35' E 000°04'8 8.1
2014-Apr-09 10:33N 53°35' E 000°18'4 4.4
2014-Apr-09 09:34N 53°39' E 000°22'27 6.2
2014-Apr-09 05:11N 54°03' E 000°42'4 6.1
2014-Apr-09 04:33N 54°06' E 000°45'31811.8
2014-Apr-08 01:33N 58°51' E 005°02'1312.7
2014-Apr-08 00:33N 59°03' E 005°13'1313.2
2014-Apr-07 23:33N 59°15' E 005°20'1111.3
2014-Apr-07 22:33N 59°26' E 005°14'184 7.6
2014-Apr-06 22:28N 62°28' E 006°08'0 0.0
2014-Apr-06 21:33N 62°28' E 006°08'0 0.0
2014-Apr-06 19:30N 62°28' E 006°08'1 0.6
2014-Apr-06 18:28N 62°28' E 006°10'1 1.1
2014-Apr-06 17:32N 62°28' E 006°08'0 0.0
2014-Apr-06 16:33N 62°28' E 006°08'2 1.4
2014-Apr-06 15:09N 62°29' E 006°12'0 0.0
2014-Apr-06 14:32N 62°29' E 006°12'1 0.9
2014-Apr-06 13:26N 62°29' E 006°14'  

Dump ship's entire track history

sailing weather and tide predictions

Svartfoss — V2PR3 — position and weather